Nearby METAR Reports

 

KPMD - Palmdale, California, USA
Distance from station: NNE 12mi, 19km
Updated: Sat, 18-Aug-2018 2:53am PDT
Clear
Clear
 Wind from SW
Wind: SW 12 mph , 19 km/h
Temperature: 79°F , 26°C
Dew Point: 52°F , 11°C
Humidity: 39%
Barometer: 30.08 inHg , 1018.6 hPa
Clouds: Clear
Visibility: 10 miles , 16 km
2018/08/18 09:53 KPMD 180953Z AUTO 22010KT 10SM CLR 26/11 A3008 RMK AO2 SLP150 T02560106
KWJF - Lancaster/Fox, California, USA
Distance from station: N 17mi, 27km
Updated: Sat, 18-Aug-2018 2:56am PDT
Clear
Clear
 Wind from SW
Wind: SW 12 mph , 19 km/h
Temperature: 79°F , 26°C
Dew Point: 52°F , 11°C
Humidity: 39%
Barometer: 30.06 inHg , 1017.9 hPa
Clouds: Clear
Visibility: 10 miles , 16 km
2018/08/18 09:56 KWJF 180956Z AUTO 23010KT 10SM CLR 26/11 A3006 RMK AO2 SLP152 T02610111
 
KMWS - Mount Wilson, California, USA
Distance from station: SSE 18mi, 30km
Updated: Wed, 13-May-2015 6:45am PDT
NOT Current

 Wind from S
Wind: S 3 mph , 6 km/h, Gust: 5 mph , 7 km/h
Temperature: 43°F , 6°C
Dew Point: -0°F , -18°C
Humidity: 16%
2015/05/13 13:45 KMWS 131345Z 18003G04KT 06/M18 RMK SNOW DEPTH 1.00
KWHP - La / Whiteman, California, USA
Distance from station: SW 21mi, 34km
Updated: Fri, 17-Aug-2018 7:50pm PDT
NOT Current
Clear
Clear
 Wind from calm
Wind: Calm
Temperature: 79°F , 26°C
Dew Point: 61°F , 16°C
Humidity: 54%
Barometer: 30.04 inHg , 1017.3 hPa
Clouds: Clear
Visibility: 10 miles , 16 km
2018/08/18 02:50 KWHP 180250Z 00000KT 10SM SKC 26/16 A3004
 
KBUR - Burbank, California, USA
Distance from station: SSW 22mi, 35km
Updated: Sat, 18-Aug-2018 2:53am PDT
Clear
Clear
 Wind from calm
Wind: Calm
Temperature: 70°F , 21°C
Dew Point: 68°F , 20°C
Humidity: 94%
Barometer: 30.03 inHg , 1016.9 hPa
Clouds: Clear
Visibility: 10 miles , 16 km
2018/08/18 09:53 KBUR 180953Z 00000KT 10SM CLR 21/20 A3003 RMK AO2 SLP155 T02110200 $
KVNY - Van Nuys, California, USA
Distance from station: SW 25mi, 40km
Updated: Sat, 18-Aug-2018 2:51am PDT
Clear
Clear
 Wind from calm
Wind: Calm
Temperature: 70°F , 21°C
Dew Point: 64°F , 18°C
Humidity: 83%
Barometer: 30.04 inHg , 1017.3 hPa
Clouds: Clear
Visibility: 9 miles , 14 km
2018/08/18 09:51 KVNY 180951Z AUTO 00000KT 9SM CLR 21/18 A3004 RMK AO2 SLP160 T02110183
 
KEDW - Edwards Afb, California, USA
Distance from station: NNE 33mi, 53km
Updated: Sat, 18-Aug-2018 2:58am PDT
Clear
Clear
 Wind from SSW
Wind: SSW 9 mph , 15 km/h
Temperature: 75°F , 24°C
Dew Point: 48°F , 9°C
Humidity: 39%
Barometer: 30.03 inHg , 1016.9 hPa
Clouds: Clear
Visibility: 10 miles , 16 km
2018/08/18 09:58 KEDW 180958Z AUTO 21008KT 10SM CLR 24/09 A3003 RMK AO2 SLP140 T02430094
KSMO - Santa Monica, California, USA
Distance from station: SSW 35mi, 57km
Updated: Sat, 18-Aug-2018 3:19am PDT
Few Clouds
Few Clouds
 Wind from calm
Wind: Calm
Temperature: 73°F , 23°C
Dew Point: 66°F , 19°C
Humidity: 78%
Barometer: 30.02 inHg , 1016.6 hPa
Clouds: Few Clouds
Visibility: 10 miles , 16 km
Cloud details: Few Clouds 1100 ft
2018/08/18 10:19 KSMO 181019Z 00000KT 10SM FEW011 23/19 A3002 RMK AO2 T02330189
 
KLAX - Los Angeles, California, USA
Distance from station: SSW 39mi, 63km
Updated: Sat, 18-Aug-2018 2:53am PDT
Mostly cloudy
Mostly cloudy
 Wind from NW
Wind: NW 5 mph , 7 km/h
Temperature: 72°F , 22°C
Dew Point: 66°F , 19°C
Humidity: 83%
Barometer: 30.03 inHg , 1016.9 hPa
Clouds: Mostly cloudy
Visibility: 10 miles , 16 km
Cloud details: Mostly cloudy 1300 ft
2018/08/18 09:53 KLAX 180953Z 32004KT 10SM BKN013 22/19 A3003 RMK AO2 SLP165 T02220189
KMHV - Mojave, California, USA
Distance from station: N 41mi, 66km
Updated: Sat, 18-Aug-2018 3:20am PDT
Clear
Clear
 Wind from NW
Wind: NW 25 mph , 41 km/h, Gust: 33 mph , 54 km/h
Temperature: 82°F , 28°C
Dew Point: 50°F , 10°C
Humidity: 32%
Barometer: 30.05 inHg , 1017.6 hPa
Clouds: Clear
Visibility: 10 miles , 16 km
2018/08/18 10:20 KMHV 181020Z AUTO 31022G29KT 10SM CLR 28/10 A3005 RMK A01
 
KFUL - Fullerton, California, USA
Distance from station: SSE 44mi, 70km
Updated: Sat, 18-Aug-2018 2:53am PDT
Clear
Clear
 Wind from calm
Wind: Calm
Temperature: 72°F , 22°C
Dew Point: 66°F , 19°C
Humidity: 83%
Barometer: 30.02 inHg , 1016.6 hPa
Clouds: Clear
Visibility: 9 miles , 14 km
2018/08/18 09:53 KFUL 180953Z AUTO 00000KT 9SM CLR 22/19 A3002 RMK AO2 SLP164 T02220189
KONT - Ontario, California, USA
Distance from station: SE 45mi, 72km
Updated: Sat, 18-Aug-2018 2:53am PDT
Few Clouds
Few Clouds
 Wind from WSW
Wind: WSW 6 mph , 9 km/h
Temperature: 72°F , 22°C
Dew Point: 64°F , 18°C
Humidity: 78%
Barometer: 30.04 inHg , 1017.3 hPa
Clouds: Few Clouds
Visibility: 10 miles , 16 km
Cloud details: Few Clouds 1000 ft
2018/08/18 09:53 KONT 180953Z 24005KT 10SM FEW010 22/18 A3004 RMK AO2 SLP154 T02170178 $
 
KLGB - Long Beach, California, USA
Distance from station: S 46mi, 74km
Updated: Sat, 18-Aug-2018 2:53am PDT
Clear
Clear
 Wind from SE
Wind: SE 3 mph , 6 km/h
Temperature: 72°F , 22°C
Dew Point: 68°F , 20°C
Humidity: 88%
Barometer: 30.02 inHg , 1016.6 hPa
Clouds: Clear
Visibility: 9 miles , 14 km
2018/08/18 09:53 KLGB 180953Z AUTO 14003KT 9SM CLR 22/20 A3002 RMK AO2 SLP166 T02220200
KVCV - Victorville, California, USA
Distance from station: E 46mi, 74km
Updated: Fri, 17-Aug-2018 7:48pm PDT
NOT Current
Clear
Clear
 Wind from SSW
Wind: SSW 10 mph , 17 km/h
Barometer: 30.07 inHg , 1018.3 hPa
Clouds: Clear
Visibility: 10 miles , 16 km
2018/08/18 02:48 KVCV 180248Z 20009KT 10SM SKC A3007
 
KTSP - Tehachapi, California, USA
Distance from station: NNW 48mi, 77km
Updated: Sat, 18-Aug-2018 3:35am PDT
Clear
Clear
 Wind from W
Wind: W 9 mph , 15 km/h
Temperature: 70°F , 21°C
Dew Point: 46°F , 8°C
Humidity: 43%
Barometer: 30.21 inHg , 1023 hPa
Clouds: Clear
Visibility: 10 miles , 16 km
2018/08/18 10:35 KTSP 181035Z AUTO 28008KT 10SM CLR 21/08 A3021 RMK AO2